Methow, Washington
Current Conditions -  °F | °C
As of 5:53 AM on Tuesday 27 Jan 2015 (Local Time) from KOMK Reporting Station
Moderate Fog Moderate Fog  
Wind Chill: 32°   Ceiling: 400
Heat Index: 32°   Visibility: 0.5mi
Dew Point: 31°   Wind: 0mph
Humidity: 96%   Direction: NA
Pressure: 30.01"   Gusts: NA
Location:  48.13°N, 120.01°W
Report Text: KOMK 271353Z AUTO 00000KT 1/2SM FG VV004 00/M01 A3001 RMK AO2 SLP178 T00001006
Loading
Personal Weather Stations






























Interactive Weather Map New forecast layout! Learn more

10-Day Weather Forecast

Advertisements
Track Severe Weather on mobile